createdAt,value
2018-11-22T00:00:29.436Z,4.43
2018-11-22T00:02:58.428Z,4.45
2018-11-22T00:05:42.494Z,4.58
2018-11-22T00:08:07.583Z,4.30
2018-11-22T00:10:51.630Z,4.66
2018-11-22T00:13:16.741Z,4.24
2018-11-22T00:15:41.829Z,4.31
2018-11-22T00:18:07.055Z,4.12
2018-11-22T00:20:51.176Z,4.64
2018-11-22T00:23:35.237Z,4.54
2018-11-22T00:26:00.466Z,4.48
2018-11-22T00:28:25.552Z,4.68
2018-11-22T00:30:50.626Z,4.28
2018-11-22T00:33:15.732Z,4.53
2018-11-22T00:35:40.841Z,4.00
2018-11-22T00:38:05.919Z,4.14
2018-11-22T00:40:30.986Z,4.53
2018-11-22T00:43:15.036Z,4.52
2018-11-22T00:45:40.132Z,4.44
2018-11-22T00:48:05.271Z,4.43
2018-11-22T00:50:30.344Z,4.33
2018-11-22T00:52:55.498Z,4.53
2018-11-22T00:55:22.148Z,4.58
2018-11-22T00:57:47.930Z,4.46
2018-11-22T01:00:32.038Z,4.10
2018-11-22T01:05:33.798Z,4.37
2018-11-22T01:08:17.830Z,4.38
2018-11-22T01:10:42.955Z,4.57
2018-11-22T01:13:08.033Z,4.23
2018-11-22T01:15:33.119Z,4.29
2018-11-22T01:17:58.204Z,4.32
2018-11-22T01:20:24.560Z,4.63
2018-11-22T01:22:50.422Z,4.50
2018-11-22T01:25:16.525Z,4.55
2018-11-22T01:28:00.565Z,4.45
2018-11-22T01:30:26.485Z,4.63
2018-11-22T01:32:52.577Z,4.44
2018-11-22T01:35:18.572Z,4.45
2018-11-22T01:37:43.891Z,4.52
2018-11-22T01:40:11.318Z,4.45
2018-11-22T01:42:36.493Z,4.35
2018-11-22T01:45:01.794Z,4.35
2018-11-22T01:47:26.849Z,4.46
2018-11-22T01:52:47.569Z,4.57
2018-11-22T01:55:14.309Z,4.47
2018-11-22T01:57:39.792Z,4.52
2018-11-22T02:00:05.089Z,4.47
2018-11-22T02:02:30.222Z,4.29
2018-11-22T02:04:55.326Z,4.63
2018-11-22T02:07:20.438Z,4.52
2018-11-22T02:09:45.531Z,4.35
2018-11-22T02:12:10.652Z,4.58
2018-11-22T02:14:35.716Z,4.55
2018-11-22T02:17:00.856Z,4.19
2018-11-22T02:19:26.009Z,4.24
2018-11-22T02:21:51.117Z,4.45
2018-11-22T02:24:16.238Z,4.56
2018-11-22T02:27:00.410Z,4.43
2018-11-22T02:29:25.503Z,4.32
2018-11-22T02:31:50.601Z,4.60
2018-11-22T02:34:15.726Z,4.70
2018-11-22T02:36:59.799Z,4.79
2018-11-22T02:39:24.915Z,4.42
2018-11-22T02:41:49.982Z,4.64
2018-11-22T02:44:15.092Z,4.80
2018-11-22T02:46:40.223Z,4.73
2018-11-22T02:49:05.487Z,4.77
2018-11-22T02:51:30.620Z,4.73
2018-11-22T02:53:55.755Z,4.47
2018-11-22T02:56:20.868Z,4.46
2018-11-22T02:58:45.939Z,4.65
2018-11-22T03:01:11.019Z,4.63
2018-11-22T03:03:55.048Z,4.73
2018-11-22T03:06:39.116Z,4.60
2018-11-22T03:09:16.090Z,4.78
2018-11-22T03:11:41.552Z,4.84
2018-11-22T03:14:06.728Z,4.44
2018-11-22T03:16:31.835Z,4.34
2018-11-22T03:18:56.943Z,4.42
2018-11-22T03:21:22.046Z,4.55
2018-11-22T03:23:47.128Z,4.71
2018-11-22T03:28:48.875Z,4.61
2018-11-22T03:31:14.166Z,4.62
2018-11-22T03:33:39.247Z,4.73
2018-11-22T03:36:04.343Z,4.76
2018-11-22T03:38:29.497Z,4.80
2018-11-22T03:40:54.550Z,4.58
2018-11-22T03:43:38.380Z,4.61
2018-11-22T03:46:03.577Z,4.70
2018-11-22T03:48:28.679Z,4.82
2018-11-22T03:50:53.825Z,4.68
2018-11-22T03:53:18.920Z,4.81
2018-11-22T03:55:44.131Z,4.52
2018-11-22T03:58:09.197Z,4.68
2018-11-22T04:00:34.288Z,4.55
2018-11-22T04:02:59.346Z,4.57
2018-11-22T04:05:25.498Z,4.72
2018-11-22T04:07:50.578Z,4.76
2018-11-22T04:10:20.218Z,4.81
2018-11-22T04:12:45.311Z,4.79
2018-11-22T04:15:11.335Z,4.80
2018-11-22T04:17:36.537Z,4.71
2018-11-22T04:20:01.642Z,4.48
2018-11-22T04:22:26.765Z,4.64
2018-11-22T04:24:51.850Z,4.69
2018-11-22T04:27:16.993Z,4.81
2018-11-22T04:29:42.080Z,4.83
2018-11-22T04:32:07.304Z,4.42
2018-11-22T04:34:32.455Z,4.49
2018-11-22T04:36:57.577Z,4.55
2018-11-22T04:39:22.726Z,4.72
2018-11-22T04:42:06.777Z,4.48
2018-11-22T04:44:50.877Z,4.71
2018-11-22T04:47:15.973Z,4.71
2018-11-22T04:49:41.175Z,4.73
2018-11-22T04:52:06.446Z,4.61
2018-11-22T04:54:31.574Z,4.69
2018-11-22T04:56:56.707Z,4.63
2018-11-22T04:59:21.831Z,4.82
2018-11-22T05:04:30.610Z,4.69
2018-11-22T05:06:51.422Z,4.83
2018-11-22T05:09:16.535Z,4.55
2018-11-22T05:11:41.666Z,4.62
2018-11-22T05:14:06.972Z,4.45
2018-11-22T05:16:32.128Z,4.56
2018-11-22T05:18:57.242Z,4.22
2018-11-22T05:21:41.287Z,4.39
2018-11-22T05:24:18.247Z,4.65
2018-11-22T05:26:43.284Z,4.71
2018-11-22T05:29:12.476Z,4.74
2018-11-22T05:31:33.534Z,4.71
2018-11-22T05:33:58.618Z,4.78
2018-11-22T05:36:23.772Z,4.79
2018-11-22T05:38:48.894Z,4.82
2018-11-22T05:41:13.998Z,4.72
2018-11-22T05:43:39.094Z,4.31
2018-11-22T05:46:04.189Z,4.04
2018-11-22T05:48:29.229Z,4.39
2018-11-22T05:50:54.342Z,4.34
2018-11-22T05:53:19.406Z,4.14
2018-11-22T05:56:03.470Z,4.66
2018-11-22T05:58:28.536Z,4.81
2018-11-22T06:00:53.647Z,4.73
2018-11-22T06:03:18.722Z,4.80
2018-11-22T06:05:43.958Z,4.82
2018-11-22T06:08:09.035Z,4.30
2018-11-22T06:10:35.455Z,4.30
2018-11-22T06:13:08.319Z,4.64
2018-11-22T06:15:33.419Z,4.83
2018-11-22T06:18:17.484Z,4.81
2018-11-22T06:20:42.713Z,4.68
2018-11-22T06:23:07.801Z,4.84
2018-11-22T06:25:32.865Z,4.66
2018-11-22T06:27:58.456Z,4.75
2018-11-22T06:30:24.911Z,4.83
2018-11-22T06:32:51.464Z,4.86
2018-11-22T06:35:16.612Z,4.84
2018-11-22T06:37:41.747Z,4.88
2018-11-22T06:40:07.890Z,4.57
2018-11-22T06:42:32.989Z,4.72
2018-11-22T06:44:58.124Z,4.30
2018-11-22T06:47:23.981Z,4.61
2018-11-22T06:49:49.050Z,4.75
2018-11-22T06:52:14.170Z,4.57
2018-11-22T06:57:34.839Z,4.37
2018-11-22T07:00:37.545Z,4.71
2018-11-22T07:03:04.472Z,4.73
2018-11-22T07:05:29.528Z,4.44
2018-11-22T07:07:54.816Z,4.55
2018-11-22T07:10:20.155Z,4.66
2018-11-22T07:12:45.511Z,4.81
2018-11-22T07:15:11.193Z,4.80
2018-11-22T07:17:36.713Z,4.87
2018-11-22T07:20:14.926Z,4.86
2018-11-22T07:22:39.991Z,4.78
2018-11-22T07:25:05.278Z,4.85
2018-11-22T07:27:30.376Z,4.80
2018-11-22T07:29:55.482Z,4.57
2018-11-22T07:32:20.584Z,4.72
2018-11-22T07:34:45.742Z,4.66
2018-11-22T07:37:10.831Z,4.80
2018-11-22T07:39:35.979Z,4.79
2018-11-22T07:42:01.021Z,4.78
2018-11-22T07:44:26.199Z,4.61
2018-11-22T07:46:51.321Z,4.73
2018-11-22T07:49:16.423Z,4.87
2018-11-22T07:51:41.539Z,4.80
2018-11-22T07:54:06.908Z,4.69
2018-11-22T07:56:32.030Z,4.90
2018-11-22T07:58:57.191Z,4.72
2018-11-22T08:01:22.615Z,4.84
2018-11-22T08:03:47.702Z,4.70
2018-11-22T08:06:12.768Z,4.97
2018-11-22T08:08:37.831Z,4.86
2018-11-22T08:11:21.854Z,4.87
2018-11-22T08:13:46.932Z,5.07
2018-11-22T08:16:12.024Z,4.51
2018-11-22T08:18:37.121Z,4.98
2018-11-22T08:21:04.848Z,4.89
2018-11-22T08:23:27.315Z,5.03
2018-11-22T08:25:52.465Z,5.06
2018-11-22T08:28:17.589Z,5.20
2018-11-22T08:30:42.704Z,5.10
2018-11-22T08:33:07.810Z,5.17
2018-11-22T08:35:32.913Z,5.13
2018-11-22T08:37:58.013Z,5.11
2018-11-22T08:40:24.592Z,4.98
2018-11-22T08:42:55.114Z,5.10
2018-11-22T08:45:16.142Z,4.85
2018-11-22T08:47:41.209Z,4.87
2018-11-22T08:50:08.229Z,5.12
2018-11-22T08:52:33.409Z,5.20
2018-11-22T08:54:59.301Z,5.20
2018-11-22T08:57:24.500Z,5.04
2018-11-22T08:59:49.662Z,5.09
2018-11-22T09:02:14.800Z,5.23
2018-11-22T09:04:39.929Z,5.24
2018-11-22T09:07:04.989Z,5.14
2018-11-22T09:09:30.071Z,5.21
2018-11-22T09:11:55.219Z,5.17
2018-11-22T09:14:20.315Z,4.97
2018-11-22T09:16:45.372Z,5.22
2018-11-22T09:19:10.505Z,5.24
2018-11-22T09:21:35.584Z,5.10
2018-11-22T09:24:00.705Z,4.95
2018-11-22T09:26:26.014Z,5.17
2018-11-22T09:28:51.167Z,5.21
2018-11-22T09:31:16.195Z,5.17
2018-11-22T09:34:00.255Z,5.18
2018-11-22T09:36:25.359Z,5.26
2018-11-22T09:38:50.438Z,5.29
2018-11-22T09:41:18.309Z,5.37
2018-11-22T09:46:40.444Z,5.21
2018-11-22T09:49:05.627Z,4.89
2018-11-22T09:51:49.784Z,5.00
2018-11-22T09:54:14.931Z,4.98
2018-11-22T09:56:40.055Z,5.16
2018-11-22T09:59:05.228Z,5.08
2018-11-22T10:01:30.322Z,5.22
2018-11-22T10:03:55.357Z,5.00
2018-11-22T10:06:20.494Z,5.27
2018-11-22T10:08:45.580Z,5.53
2018-11-22T10:11:10.704Z,5.45
2018-11-22T10:13:54.809Z,5.06
2018-11-22T10:16:19.852Z,5.03
2018-11-22T10:18:45.091Z,5.37
2018-11-22T10:21:10.046Z,5.44
2018-11-22T10:23:35.118Z,5.56
2018-11-22T10:26:00.223Z,5.58
2018-11-22T10:28:25.287Z,5.57
2018-11-22T10:30:50.438Z,5.13
2018-11-22T10:33:15.510Z,5.11
2018-11-22T10:35:40.557Z,5.36
2018-11-22T10:38:06.008Z,5.62
2018-11-22T10:40:31.045Z,5.66
2018-11-22T10:43:14.919Z,5.37
2018-11-22T10:45:39.981Z,5.47
2018-11-22T10:48:07.177Z,5.68
2018-11-22T10:50:33.528Z,5.73
2018-11-22T10:52:58.629Z,5.77
2018-11-22T10:55:24.947Z,5.60
2018-11-22T10:57:53.894Z,5.47
2018-11-22T11:00:36.370Z,5.38
2018-11-22T11:03:20.185Z,5.43
2018-11-22T11:06:03.920Z,5.46
2018-11-22T11:08:30.126Z,5.75
2018-11-22T11:10:55.561Z,5.85
2018-11-22T11:13:20.803Z,5.94
2018-11-22T11:15:45.901Z,5.84
2018-11-22T11:18:11.265Z,5.61
2018-11-22T11:23:12.874Z,5.80
2018-11-22T11:25:37.971Z,5.88
2018-11-22T11:28:03.170Z,5.58
2018-11-22T11:30:28.279Z,5.94
2018-11-22T11:32:53.397Z,6.08
2018-11-22T11:35:19.845Z,5.82
2018-11-22T11:37:44.928Z,5.95
2018-11-22T11:40:24.260Z,5.53
2018-11-22T11:42:50.543Z,5.84
2018-11-22T11:45:15.728Z,5.90
2018-11-22T11:47:40.853Z,5.94
2018-11-22T11:50:26.164Z,6.05
2018-11-22T11:52:51.292Z,5.79
2018-11-22T11:55:17.938Z,5.78
2018-11-22T11:57:43.480Z,6.07
2018-11-22T12:00:48.224Z,5.85
2018-11-22T12:03:13.419Z,5.92
2018-11-22T12:05:38.494Z,5.83
2018-11-22T12:08:03.621Z,5.67
2018-11-22T12:10:47.659Z,5.67
2018-11-22T12:13:31.726Z,5.93
2018-11-22T12:16:15.778Z,5.72
2018-11-22T12:18:59.908Z,6.05
2018-11-22T12:21:25.001Z,6.18
2018-11-22T12:26:45.352Z,5.76
2018-11-22T12:29:10.437Z,5.69
2018-11-22T12:31:35.514Z,5.77
2018-11-22T12:34:20.282Z,5.63
2018-11-22T12:37:03.060Z,5.95
2018-11-22T12:39:28.140Z,5.53
2018-11-22T12:41:53.234Z,5.63
2018-11-22T12:44:18.347Z,5.63
2018-11-22T12:46:43.401Z,5.72
2018-11-22T12:49:08.495Z,5.98
2018-11-22T12:51:33.592Z,5.93
2018-11-22T12:53:58.707Z,6.11
2018-11-22T12:56:23.825Z,5.76
2018-11-22T12:59:07.855Z,5.88
2018-11-22T13:01:33.001Z,6.08
2018-11-22T13:03:58.063Z,5.76
2018-11-22T13:06:23.137Z,5.74
2018-11-22T13:09:07.210Z,6.01
2018-11-22T13:11:32.291Z,6.03
2018-11-22T13:13:57.381Z,5.99
2018-11-22T13:16:22.455Z,5.78
2018-11-22T13:18:59.590Z,5.66
2018-11-22T13:21:24.373Z,6.04
2018-11-22T13:23:49.471Z,6.00
2018-11-22T13:26:14.626Z,6.03
2018-11-22T13:28:39.678Z,5.64
2018-11-22T13:31:04.825Z,5.88
2018-11-22T13:33:30.493Z,5.92
2018-11-22T13:35:55.587Z,5.97
2018-11-22T13:38:20.671Z,5.81
2018-11-22T13:45:59.456Z,5.94
2018-11-22T13:48:24.537Z,5.77
2018-11-22T13:50:49.667Z,5.88
2018-11-22T13:53:20.248Z,6.03
2018-11-22T13:55:39.894Z,5.76
2018-11-22T13:58:04.996Z,5.54
2018-11-22T14:00:31.406Z,5.89
2018-11-22T14:02:57.918Z,6.03
2018-11-22T14:05:22.980Z,5.84
2018-11-22T14:07:48.079Z,5.66
2018-11-22T14:10:32.355Z,5.63
2018-11-22T14:13:16.420Z,5.52
2018-11-22T14:15:41.474Z,5.56
2018-11-22T14:18:07.176Z,5.86
2018-11-22T14:20:33.694Z,5.37
2018-11-22T14:22:58.756Z,5.52
2018-11-22T14:25:23.868Z,5.66
2018-11-22T14:27:49.998Z,5.56
2018-11-22T14:30:16.417Z,5.60
2018-11-22T14:32:42.255Z,5.74
2018-11-22T14:35:08.476Z,5.72
2018-11-22T14:37:33.589Z,5.94
2018-11-22T14:40:27.885Z,5.91
2018-11-22T14:43:11.944Z,5.50
2018-11-22T14:45:37.043Z,5.63
2018-11-22T14:48:03.216Z,5.34
2018-11-22T14:50:51.741Z,5.78
2018-11-22T14:53:18.571Z,5.79
2018-11-22T14:55:43.699Z,5.78
2018-11-22T14:58:09.440Z,5.71
2018-11-22T15:00:34.521Z,5.35
2018-11-22T15:02:59.631Z,5.64
2018-11-22T15:05:43.651Z,5.71
2018-11-22T15:08:08.885Z,5.36
2018-11-22T15:10:52.936Z,5.50
2018-11-22T15:13:18.115Z,5.67
2018-11-22T15:15:43.170Z,5.77
2018-11-22T15:18:19.971Z,5.65
2018-11-22T15:20:45.061Z,5.73
2018-11-22T15:23:10.158Z,5.65
2018-11-22T15:25:35.244Z,5.61
2018-11-22T15:28:00.324Z,5.43
2018-11-22T15:30:26.799Z,5.69
2018-11-22T15:32:51.906Z,5.63
2018-11-22T15:35:18.224Z,5.39
2018-11-22T15:37:43.647Z,5.74
2018-11-22T15:40:11.181Z,5.86
2018-11-22T15:42:36.356Z,5.74
2018-11-22T15:45:01.551Z,5.80
2018-11-22T15:47:45.802Z,5.53
2018-11-22T15:50:30.141Z,5.63
2018-11-22T15:52:55.223Z,5.87
2018-11-22T15:58:15.935Z,5.77
2018-11-22T16:00:41.037Z,5.51
2018-11-22T16:03:06.157Z,5.80
2018-11-22T16:05:31.758Z,5.63
2018-11-22T16:07:56.949Z,5.59
2018-11-22T16:10:26.932Z,5.75
2018-11-22T16:12:49.562Z,5.71
2018-11-22T16:15:54.121Z,5.72
2018-11-22T16:18:19.218Z,5.67
2018-11-22T16:20:55.495Z,5.78
2018-11-22T16:23:20.669Z,5.73
2018-11-22T16:25:45.831Z,5.48
2018-11-22T16:28:29.968Z,5.63
2018-11-22T16:30:55.054Z,5.79
2018-11-22T16:33:20.197Z,5.60
2018-11-22T16:35:45.291Z,5.63
2018-11-22T16:38:10.382Z,5.54
2018-11-22T16:40:35.583Z,5.62
2018-11-22T16:43:01.975Z,5.58
2018-11-22T16:45:45.916Z,5.48
2018-11-22T16:48:12.464Z,5.63
2018-11-22T16:50:38.730Z,5.64
2018-11-22T16:53:03.835Z,5.49
2018-11-22T16:55:29.096Z,5.67
2018-11-22T17:00:40.296Z,5.61
2018-11-22T17:03:07.790Z,5.68
2018-11-22T17:05:51.826Z,5.66
2018-11-22T17:08:16.964Z,5.66
2018-11-22T17:10:42.542Z,5.37
2018-11-22T17:13:07.868Z,5.37
2018-11-22T17:15:37.540Z,5.62
2018-11-22T17:18:03.170Z,5.34
2018-11-22T17:20:29.260Z,5.48
2018-11-22T17:22:54.795Z,5.54
2018-11-22T17:25:38.625Z,5.37
2018-11-22T17:28:22.694Z,5.64
2018-11-22T17:30:48.272Z,5.70
2018-11-22T17:33:13.410Z,5.66
2018-11-22T17:35:38.927Z,5.57
2018-11-22T17:38:05.190Z,5.68
2018-11-22T17:43:06.766Z,5.34
2018-11-22T17:45:36.164Z,5.58
2018-11-22T17:48:01.373Z,5.64
2018-11-22T17:50:28.561Z,5.62
2018-11-22T17:52:53.738Z,5.67
2018-11-22T17:55:20.454Z,5.74
2018-11-22T17:57:45.553Z,5.77
2018-11-22T18:00:39.000Z,5.74
2018-11-22T18:03:05.021Z,5.59
2018-11-22T18:05:30.189Z,5.53
2018-11-22T18:07:55.329Z,5.67
2018-11-22T18:10:39.136Z,5.75
2018-11-22T18:13:04.226Z,5.74
2018-11-22T18:15:30.614Z,5.72
2018-11-22T18:17:56.368Z,5.71
2018-11-22T18:25:37.144Z,5.46
2018-11-22T18:28:02.438Z,5.64
2018-11-22T18:30:46.532Z,5.58
2018-11-22T18:33:11.628Z,5.46
2018-11-22T18:35:36.758Z,5.42
2018-11-22T18:38:01.832Z,5.47
2018-11-22T18:40:45.648Z,5.57
2018-11-22T18:43:10.755Z,5.45
2018-11-22T18:50:48.807Z,5.57
2018-11-22T18:53:13.985Z,5.41
2018-11-22T18:55:39.006Z,5.46
2018-11-22T18:58:04.107Z,5.61
2018-11-22T19:00:33.546Z,5.63
2018-11-22T19:05:55.377Z,5.20
2018-11-22T19:08:39.436Z,5.26
2018-11-22T19:11:04.608Z,5.53
2018-11-22T19:13:29.700Z,5.62
2018-11-22T19:15:54.766Z,5.36
2018-11-22T19:18:38.855Z,5.30
2018-11-22T19:21:03.956Z,5.05
2018-11-22T19:23:29.108Z,5.31
2018-11-22T19:26:05.500Z,5.45
2018-11-22T19:28:30.637Z,5.31
2018-11-22T19:30:55.762Z,5.52
2018-11-22T19:33:21.249Z,5.50
2018-11-22T19:35:48.008Z,5.56
2018-11-22T19:38:13.142Z,5.67
2018-11-22T19:40:39.249Z,5.57
2018-11-22T19:43:05.453Z,5.64
2018-11-22T19:45:41.463Z,5.42
2018-11-22T19:48:25.546Z,5.46
2018-11-22T19:51:09.721Z,5.33
2018-11-22T19:53:34.857Z,5.46
2018-11-22T19:56:00.028Z,5.52
2018-11-22T19:58:25.215Z,5.50
2018-11-22T20:00:50.356Z,5.56
2018-11-22T20:03:15.552Z,5.45
2018-11-22T20:05:41.534Z,5.52
2018-11-22T20:08:08.370Z,5.60
2018-11-22T20:10:52.191Z,5.39
2018-11-22T20:13:17.333Z,5.65
2018-11-22T20:15:42.489Z,5.41
2018-11-22T20:18:08.843Z,5.41
2018-11-22T20:20:33.940Z,5.47
2018-11-22T20:22:59.198Z,5.53
2018-11-22T20:25:24.584Z,5.54
2018-11-22T20:27:50.498Z,5.58
2018-11-22T20:30:36.829Z,5.48
2018-11-22T20:33:02.126Z,5.35
2018-11-22T20:35:27.230Z,5.40
2018-11-22T20:37:52.827Z,5.54
2018-11-22T20:40:19.294Z,5.55
2018-11-22T20:42:44.429Z,5.47
2018-11-22T20:45:11.632Z,5.46
2018-11-22T20:47:36.788Z,5.37
2018-11-22T20:50:01.879Z,5.45
2018-11-22T20:52:27.051Z,5.47
2018-11-22T20:54:52.161Z,5.52
2018-11-22T20:57:17.308Z,5.42
2018-11-22T20:59:42.419Z,5.38
2018-11-22T21:02:07.548Z,5.52
2018-11-22T21:04:32.719Z,5.51
2018-11-22T21:06:57.898Z,5.20
2018-11-22T21:09:23.390Z,5.36
2018-11-22T21:11:48.487Z,5.53
2018-11-22T21:14:13.612Z,5.51
2018-11-22T21:16:38.737Z,5.53
2018-11-22T21:19:22.810Z,5.42
2018-11-22T21:21:47.945Z,5.51
2018-11-22T21:26:49.484Z,5.48
2018-11-22T21:29:14.647Z,5.54
2018-11-22T21:34:23.957Z,5.49
2018-11-22T21:36:49.078Z,5.41
2018-11-22T21:39:14.359Z,5.53
2018-11-22T21:41:39.434Z,5.49
2018-11-22T21:44:04.492Z,5.52
2018-11-22T21:46:48.301Z,5.46
2018-11-22T21:49:13.402Z,5.46
2018-11-22T21:54:15.208Z,5.41
2018-11-22T21:56:40.312Z,5.62
2018-11-22T21:59:24.448Z,5.62
2018-11-22T22:01:49.927Z,5.59
2018-11-22T22:04:14.615Z,5.55
2018-11-22T22:06:58.684Z,5.54
2018-11-22T22:09:42.705Z,5.53
2018-11-22T22:12:07.811Z,5.62
2018-11-22T22:14:32.964Z,5.73
2018-11-22T22:16:58.116Z,5.36
2018-11-22T22:19:23.228Z,5.60
2018-11-22T22:21:48.292Z,5.66
2018-11-22T22:24:13.401Z,5.54
2018-11-22T22:26:38.500Z,5.46
2018-11-22T22:29:03.649Z,5.56
2018-11-22T22:34:04.802Z,5.55
2018-11-22T22:36:29.863Z,5.64
2018-11-22T22:38:54.934Z,5.61
2018-11-22T22:41:20.041Z,5.55
2018-11-22T22:43:45.127Z,5.64
2018-11-22T22:46:10.316Z,5.46
2018-11-22T22:48:35.443Z,5.65
2018-11-22T22:51:00.537Z,5.45
2018-11-22T22:53:25.616Z,5.58
2018-11-22T22:55:50.706Z,5.60
2018-11-22T22:58:15.787Z,5.40
2018-11-22T23:00:59.581Z,5.55
2018-11-22T23:03:43.657Z,5.58
2018-11-22T23:06:27.704Z,5.63
2018-11-22T23:09:13.268Z,5.65
2018-11-22T23:11:38.709Z,5.41
2018-11-22T23:14:03.779Z,5.47
2018-11-22T23:16:28.858Z,5.51
2018-11-22T23:18:53.919Z,5.40
2018-11-22T23:21:19.030Z,5.55
2018-11-22T23:23:44.155Z,5.63
2018-11-22T23:26:09.232Z,5.66
2018-11-22T23:28:34.324Z,5.53
2018-11-22T23:30:59.382Z,5.51
2018-11-22T23:33:24.471Z,5.58
2018-11-22T23:35:49.529Z,5.54
2018-11-22T23:38:14.640Z,5.61
2018-11-22T23:40:39.710Z,5.58
2018-11-22T23:43:04.836Z,5.68
2018-11-22T23:45:30.989Z,5.62
2018-11-22T23:47:56.087Z,5.57
2018-11-22T23:50:22.543Z,5.54
2018-11-22T23:52:48.839Z,5.57
2018-11-22T23:55:13.961Z,5.60
2018-11-22T23:57:39.339Z,5.57
